Time;durP1;ratioP1;P1;durP2;ratioP2;P2;SDS_P1;SDS_P2;PMS_P1;PMS_P2;Temp;Humidity;BMP_temperature;BMP_pressure;BME280_temperature;BME280_humidity;BME280_pressure;Samples;Min_cycle;Max_cycle;Signal;HPM_P1;HPM_P2
2021/04/18 00:00:54;;;;;;;19.27;12.38;;;;;;;5.42;66.35;98061.81;10298673;28;20445;-75
2021/04/18 00:06:16;;;;;;;17.52;12.77;;;;;;;5.34;66.43;98067.31;10378864;28;20052;-75
2021/04/18 00:11:35;;;;;;;19.85;11.60;;;;;;;5.42;66.38;98059.03;10378016;28;20053;-75
2021/04/18 00:16:55;;;;;;;18.08;11.93;;;;;;;5.41;66.00;98055.53;10364435;28;20103;-75
2021/04/18 00:22:16;;;;;;;18.67;12.85;;;;;;;5.41;66.69;98044.44;10350966;28;20038;-74
2021/04/18 00:27:35;;;;;;;17.70;11.07;;;;;;;5.33;66.49;98046.47;10377556;28;20041;-75
2021/04/18 00:32:55;;;;;;;17.60;11.68;;;;;;;5.32;66.83;98045.00;10377891;28;20042;-75
2021/04/18 00:38:15;;;;;;;17.63;11.70;;;;;;;5.37;66.63;98054.41;10363580;28;20046;-75
2021/04/18 00:43:45;;;;;;;18.92;12.68;;;;;;;5.43;67.00;98052.94;10363378;28;20045;-76
2021/04/18 00:49:06;;;;;;;18.90;12.45;;;;;;;5.45;66.74;98050.34;10376964;28;20049;-77
2021/04/18 00:54:25;;;;;;;18.17;12.23;;;;;;;5.50;66.62;98054.25;10376973;28;20038;-75
2021/04/18 00:59:45;;;;;;;19.02;12.55;;;;;;;5.56;66.37;98049.25;10362986;28;20042;-75
2021/04/18 01:05:06;;;;;;;16.90;12.20;;;;;;;5.59;66.83;98031.50;10361447;28;20492;-75
2021/04/18 01:10:28;;;;;;;17.63;12.77;;;;;;;5.64;66.66;98027.09;10363031;28;20053;-75
2021/04/18 01:15:49;;;;;;;16.45;12.13;;;;;;;5.68;66.59;98019.13;10348639;28;20045;-75
2021/04/18 01:21:11;;;;;;;19.08;11.98;;;;;;;5.67;66.60;98015.63;10375378;28;20052;-76
2021/04/18 01:26:37;;;;;;;16.75;12.02;;;;;;;5.66;67.07;98008.63;10337267;28;20042;-75
2021/04/18 01:31:57;;;;;;;17.98;11.82;;;;;;;5.64;67.01;98010.47;10348332;28;20049;-75
2021/04/18 01:37:18;;;;;;;19.13;13.00;;;;;;;5.62;67.05;97994.41;10348109;28;20038;-75
2021/04/18 01:42:40;;;;;;;19.20;12.52;;;;;;;5.52;67.06;97999.03;10348249;28;20038;-75
2021/04/18 01:48:00;;;;;;;15.57;11.98;;;;;;;5.45;67.07;97988.69;10361270;28;20092;-76
2021/04/18 01:53:20;;;;;;;17.02;11.82;;;;;;;5.43;67.07;98002.38;10347634;28;20092;-76
2021/04/18 01:58:42;;;;;;;20.00;13.10;;;;;;;5.42;67.41;98007.16;10361836;28;20113;-76
2021/04/18 02:04:23;;;;;;;18.27;12.82;;;;;;;5.43;67.10;98003.09;10320732;28;20055;-76
2021/04/18 02:09:49;;;;;;;20.10;12.45;;;;;;;5.45;67.65;98002.53;10307141;28;20049;-75
2021/04/18 02:15:10;;;;;;;17.70;12.38;;;;;;;5.49;66.92;98002.91;10333230;28;20065;-76
2021/04/18 02:20:30;;;;;;;19.15;11.98;;;;;;;5.51;67.27;98005.88;10293415;28;20045;-75
2021/04/18 02:25:52;;;;;;;18.52;12.57;;;;;;;5.51;67.33;98005.88;10306347;28;20038;-76
2021/04/18 02:31:14;;;;;;;17.58;12.20;;;;;;;5.53;67.42;98008.09;10319940;28;20464;-76
2021/04/18 02:36:36;;;;;;;21.30;12.23;;;;;;;5.57;67.09;98017.50;10319588;28;20066;-76
2021/04/18 02:41:56;;;;;;;19.63;12.27;;;;;;;5.59;67.21;98008.63;10305735;28;20101;-75
2021/04/18 02:47:17;;;;;;;18.17;11.85;;;;;;;5.61;67.23;98008.81;10319704;28;20066;-76
2021/04/18 02:52:43;;;;;;;17.00;11.57;;;;;;;5.60;67.29;98015.66;10306400;28;20053;-76
2021/04/18 02:58:03;;;;;;;20.63;12.52;;;;;;;5.57;67.18;98014.72;10319061;28;20086;-75
2021/04/18 03:03:23;;;;;;;20.20;12.25;;;;;;;5.55;67.25;98011.03;10321072;28;20063;-74
2021/04/18 03:08:43;;;;;;;19.63;11.77;;;;;;;5.51;67.44;98005.13;10305465;28;20484;-76
2021/04/18 03:14:03;;;;;;;18.58;12.70;;;;;;;5.50;67.47;98009.19;10304770;28;20061;-75
2021/04/18 03:19:24;;;;;;;22.25;12.90;;;;;;;5.46;67.22;98013.06;10304869;28;20046;-75
2021/04/18 03:24:51;;;;;;;21.63;12.70;;;;;;;5.47;67.94;98006.22;10321410;28;20046;-75
2021/04/18 03:30:12;;;;;;;17.20;12.35;;;;;;;5.47;67.46;97997.91;10325653;28;20042;-75
2021/04/18 03:35:43;;;;;;;21.45;13.05;;;;;;;5.47;67.72;98002.72;10315304;28;20042;-75
2021/04/18 03:41:04;;;;;;;18.38;12.57;;;;;;;5.44;67.64;97999.03;10339241;28;20039;-74
2021/04/18 03:46:28;;;;;;;20.73;13.00;;;;;;;5.46;67.44;97990.91;10299625;28;20034;-75
2021/04/18 03:51:48;;;;;;;17.65;12.35;;;;;;;5.46;67.64;97999.22;10352408;28;20042;-75
2021/04/18 03:57:08;;;;;;;17.90;12.48;;;;;;;5.41;67.73;97997.38;10338377;28;20039;-76
2021/04/18 04:02:30;;;;;;;17.83;11.80;;;;;;;5.38;67.34;97990.16;10326320;28;20054;-75
2021/04/18 04:07:51;;;;;;;19.05;13.65;;;;;;;5.40;67.67;97987.59;10311136;28;20409;-77
2021/04/18 04:13:12;;;;;;;20.98;13.45;;;;;;;5.36;67.63;97981.69;10323152;28;20413;-75
2021/04/18 04:18:33;;;;;;;19.75;12.50;;;;;;;5.31;67.48;97990.94;10309327;28;20050;-76
2021/04/18 04:24:00;;;;;;;20.25;13.15;;;;;;;5.37;67.68;97977.63;10310799;28;20374;-75
2021/04/18 04:29:20;;;;;;;22.88;13.98;;;;;;;5.49;67.80;97977.25;10310289;28;20046;-76
2021/04/18 04:34:40;;;;;;;18.75;13.23;;;;;;;5.54;67.80;97976.34;10353441;28;20042;-77
2021/04/18 04:40:00;;;;;;;20.30;13.48;;;;;;;5.68;68.00;97974.81;10305861;28;20050;-76
2021/04/18 04:46:09;;;;;;;20.92;12.73;;;;;;;6.01;67.66;97970.91;10309542;28;20042;-75
2021/04/18 04:51:29;;;;;;;22.52;13.65;;;;;;;6.26;67.58;97973.03;10348406;28;20536;-75
2021/04/18 04:56:50;;;;;;;20.27;12.60;;;;;;;6.53;67.71;97985.13;10350199;28;20049;-75
2021/04/18 05:02:10;;;;;;;19.13;13.55;;;;;;;6.82;67.42;97976.47;10343402;28;20407;-75
2021/04/18 05:07:30;;;;;;;22.77;14.38;;;;;;;7.16;66.99;97975.88;10403629;28;20049;-76
2021/04/18 05:12:50;;;;;;;23.13;15.10;;;;;;;7.75;66.05;97973.16;10376147;28;20451;-75
2021/04/18 05:18:10;;;;;;;20.25;14.52;;;;;;;10.42;66.89;97970.53;10389104;28;20455;-75
2021/04/18 05:23:29;;;;;;;24.65;16.08;;;;;;;17.23;65.75;97980.81;10389595;28;20117;-75
2021/04/18 05:28:49;;;;;;;16.35;12.18;;;;;;;22.39;56.05;97972.00;10375604;28;20046;-78
2021/04/18 05:34:09;;;;;;;13.68;11.30;;;;;;;27.20;45.38;97985.84;10320560;28;20049;-76
2021/04/18 05:39:29;;;;;;;13.40;10.50;;;;;;;30.58;35.34;98000.63;10334324;28;20473;-76
2021/04/18 05:44:48;;;;;;;11.63;10.02;;;;;;;33.76;25.76;97988.19;10334497;28;20049;-76
2021/04/18 05:50:09;;;;;;;13.55;9.40;;;;;;;35.25;19.44;97984.66;10319637;28;20043;-74
2021/04/18 05:55:28;;;;;;;11.43;9.38;;;;;;;35.52;16.77;97981.75;10333934;28;20489;-76
2021/04/18 06:00:48;;;;;;;11.05;9.07;;;;;;;36.48;14.72;97982.47;10319994;28;20038;-76
2021/04/18 06:06:08;;;;;;;10.65;8.55;;;;;;;37.49;13.03;97983.38;10333204;28;20059;-76
2021/04/18 06:11:28;;;;;;;12.13;9.38;;;;;;;38.49;11.66;97976.63;10306071;28;20046;-78
2021/04/18 06:16:49;;;;;;;12.93;8.73;;;;;;;39.44;10.53;97980.63;10317579;28;20054;-80
2021/04/18 06:22:08;;;;;;;13.30;8.00;;;;;;;40.11;9.81;97974.63;10333118;28;20045;-79
2021/04/18 06:27:28;;;;;;;11.25;8.55;;;;;;;37.21;9.53;97977.06;10305739;28;20046;-79
2021/04/18 06:32:48;;;;;;;10.88;8.80;;;;;;;28.19;12.82;97965.41;10333184;28;20054;-79
2021/04/18 06:38:08;;;;;;;14.02;9.73;;;;;;;23.04;17.04;97960.03;10305245;28;20054;-74
2021/04/18 06:43:28;;;;;;;12.90;9.48;;;;;;;24.16;20.26;97970.81;10332835;28;20042;-74
2021/04/18 06:48:48;;;;;;;13.20;9.00;;;;;;;33.39;17.37;97961.47;10332422;28;20050;-75
2021/04/18 06:54:09;;;;;;;11.60;8.00;;;;;;;33.29;13.57;97942.81;10318772;28;20043;-75
2021/04/18 06:59:29;;;;;;;13.52;8.52;;;;;;;28.96;15.38;97956.81;10321531;28;20504;-74
2021/04/18 07:05:09;;;;;;;11.45;8.57;;;;;;;32.40;14.72;97958.88;10326868;28;20077;-76
2021/04/18 07:10:32;;;;;;;14.60;10.48;;;;;;;25.20;16.00;97966.75;10326620;28;20038;-74
2021/04/18 07:15:52;;;;;;;15.43;10.60;;;;;;;20.43;19.67;97954.34;10313123;28;20050;-75
2021/04/18 07:21:12;;;;;;;14.38;10.68;;;;;;;17.95;22.68;97949.44;10340057;28;20508;-76
2021/04/18 07:26:32;;;;;;;16.50;11.65;;;;;;;16.25;25.04;97953.69;10325887;28;20042;-75
2021/04/18 07:31:52;;;;;;;16.80;12.77;;;;;;;15.94;27.04;97951.47;10325777;28;20042;-75
2021/04/18 07:37:17;;;;;;;17.50;11.90;;;;;;;15.84;27.82;97954.50;10311758;28;20085;-76
2021/04/18 07:42:42;;;;;;;15.38;11.95;;;;;;;15.59;28.90;97948.94;10311386;28;20478;-76
2021/04/18 07:48:02;;;;;;;16.20;11.90;;;;;;;14.70;30.45;97956.94;10328583;28;20042;-75
2021/04/18 07:53:23;;;;;;;20.95;13.05;;;;;;;13.44;31.96;97953.28;10337695;28;20042;-75
2021/04/18 07:58:44;;;;;;;19.30;13.73;;;;;;;12.72;35.24;97963.53;10365036;28;20516;-75
2021/04/18 08:04:04;;;;;;;17.77;12.75;;;;;;;12.52;35.15;97954.59;10351243;28;20054;-75
2021/04/18 08:09:24;;;;;;;21.00;13.73;;;;;;;12.26;35.42;97948.81;10337568;28;20069;-75
2021/04/18 08:14:49;;;;;;;17.40;13.20;;;;;;;12.39;36.25;97949.56;10364524;28;20500;-75
2021/04/18 08:20:09;;;;;;;18.83;13.73;;;;;;;12.85;37.01;97940.56;10350350;28;20046;-75
2021/04/18 08:25:29;;;;;;;18.42;13.68;;;;;;;14.08;36.85;97951.31;10377977;28;20400;-75
2021/04/18 08:31:08;;;;;;;17.02;12.48;;;;;;;14.57;36.43;97946.38;10350816;28;20050;-75
2021/04/18 08:36:29;;;;;;;16.50;13.32;;;;;;;14.40;36.34;97952.44;10349761;28;20053;-75
2021/04/18 08:41:50;;;;;;;19.52;13.38;;;;;;;13.79;37.18;97946.16;10363726;28;20097;-75
2021/04/18 08:47:14;;;;;;;18.02;13.07;;;;;;;13.42;37.78;97947.56;10363401;28;20452;-75
2021/04/18 08:52:35;;;;;;;17.60;13.13;;;;;;;13.56;38.58;97949.72;10376534;28;20049;-75
2021/04/18 08:57:55;;;;;;;18.98;13.85;;;;;;;13.67;39.02;97949.72;10349443;28;20044;-75
2021/04/18 09:03:15;;;;;;;17.58;12.32;;;;;;;14.18;38.87;97946.28;10335409;28;20053;-75
2021/04/18 09:08:49;;;;;;;16.98;12.32;;;;;;;15.11;38.79;97948.63;10362501;28;20053;-75
2021/04/18 09:14:08;;;;;;;18.63;12.95;;;;;;;16.04;38.04;97946.31;10359299;28;20088;-75
2021/04/18 09:19:30;;;;;;;15.57;11.70;;;;;;;16.14;37.19;97954.53;10381505;28;20539;-75
2021/04/18 09:24:57;;;;;;;16.60;11.35;;;;;;;15.56;37.19;97931.25;10401518;28;20473;-75
2021/04/18 09:30:22;;;;;;;18.92;11.43;;;;;;;15.78;37.98;97933.75;10402130;28;20500;-75
2021/04/18 09:35:42;;;;;;;13.35;10.48;;;;;;;17.50;37.23;97940.41;10387986;28;20042;-75
2021/04/18 09:41:01;;;;;;;17.40;11.43;;;;;;;19.68;35.34;97944.75;10388175;28;20404;-77
2021/04/18 09:46:22;;;;;;;14.27;10.27;;;;;;;20.35;33.07;97943.44;10374637;28;20427;-75
2021/04/18 09:52:00;;;;;;;15.25;10.60;;;;;;;19.48;33.01;97938.34;10387549;28;20099;-75
2021/04/18 09:57:23;;;;;;;16.00;11.75;;;;;;;18.58;33.31;97942.75;10414055;28;20069;-73
2021/04/18 10:03:11;;;;;;;18.63;13.05;;;;;;;17.75;33.55;97945.72;10400673;28;20503;-72
2021/04/18 10:08:34;;;;;;;16.35;13.35;;;;;;;17.00;34.09;97940.31;10415858;28;20428;-73
2021/04/18 10:13:55;;;;;;;16.45;12.73;;;;;;;17.04;34.45;97945.41;10387608;28;20041;-76
2021/04/18 10:19:22;;;;;;;19.60;13.60;;;;;;;17.19;34.45;97950.34;10386706;28;20499;-75
2021/04/18 10:32:52;;;;;;;15.52;11.93;;;;;;;17.48;34.50;97935.38;10418408;28;20049;-82
2021/04/18 10:38:12;;;;;;;14.90;10.63;;;;;;;17.60;34.26;97932.38;10413454;28;20107;-79
2021/04/18 10:43:32;;;;;;;12.05;9.27;;;;;;;18.24;33.84;97936.47;10387524;28;20464;-75
2021/04/18 10:48:52;;;;;;;12.20;8.32;;;;;;;18.35;33.32;97929.13;10387863;28;20045;-74
2021/04/18 10:54:11;;;;;;;11.48;8.35;;;;;;;18.01;33.81;97924.25;10373291;28;20038;-76
2021/04/18 10:59:31;;;;;;;12.35;7.53;;;;;;;19.43;34.28;97916.97;10386780;28;20064;-81
2021/04/18 11:04:51;;;;;;;10.20;8.20;;;;;;;20.55;32.16;97909.38;10373274;28;20552;-81
2021/04/18 11:10:11;;;;;;;10.45;7.78;;;;;;;22.93;30.78;97904.31;10372219;28;20068;-79
2021/04/18 11:15:31;;;;;;;8.65;6.70;;;;;;;23.00;28.45;97905.88;10353975;28;20484;-78
2021/04/18 11:20:50;;;;;;;9.85;6.82;;;;;;;21.68;29.02;97897.00;10333028;28;20064;-79
2021/04/18 11:26:10;;;;;;;8.70;7.57;;;;;;;21.07;29.41;97901.72;10375492;28;20048;-80
2021/04/18 11:31:30;;;;;;;9.52;7.05;;;;;;;20.43;28.99;97892.00;10359915;28;20500;-79
2021/04/18 11:36:50;;;;;;;8.93;7.20;;;;;;;19.78;29.57;97899.06;10341086;28;20484;-79
2021/04/18 11:42:10;;;;;;;8.43;6.45;;;;;;;19.17;29.86;97897.66;10362830;28;20038;-79
2021/04/18 11:47:29;;;;;;;9.25;6.95;;;;;;;18.60;30.38;97901.16;10354889;28;20444;-78
2021/04/18 11:52:49;;;;;;;9.90;6.95;;;;;;;18.46;30.79;97897.78;10359359;28;20077;-80
2021/04/18 11:58:11;;;;;;;10.18;7.07;;;;;;;18.57;30.68;97891.16;10367306;28;20046;-79
2021/04/18 12:03:31;;;;;;;9.88;7.38;;;;;;;18.46;31.11;97894.25;10367210;28;20051;-80
2021/04/18 12:08:54;;;;;;;9.95;7.90;;;;;;;18.33;31.50;97889.47;10322139;28;20038;-79
2021/04/18 12:14:14;;;;;;;10.40;7.70;;;;;;;18.23;31.47;97887.69;10302894;28;20547;-79
2021/04/18 12:19:34;;;;;;;9.88;7.60;;;;;;;17.83;31.58;97892.44;10349552;28;20049;-80
2021/04/18 12:38:12;;;;;;;9.43;7.00;;;;;;;17.94;32.38;97873.81;11116085;23;20349;-80
2021/04/18 12:43:32;;;;;;;11.90;7.72;;;;;;;18.29;31.78;97882.28;10028980;29;20524;-80
2021/04/18 12:48:53;;;;;;;9.10;7.45;;;;;;;18.48;31.94;97878.09;10272897;23;20061;-77
2021/04/18 12:54:12;;;;;;;8.07;7.10;;;;;;;18.77;31.50;97873.53;10080927;29;20048;-78
2021/04/18 12:59:33;;;;;;;8.45;7.22;;;;;;;18.60;31.45;97881.38;10073191;29;20049;-75
2021/04/18 13:05:00;;;;;;;10.82;7.53;;;;;;;17.91;31.66;97867.34;10029588;29;20501;-76
2021/04/18 13:10:22;;;;;;;11.57;8.52;;;;;;;17.34;32.37;97873.41;10037122;29;20113;-79
2021/04/18 13:15:42;;;;;;;10.77;9.13;;;;;;;17.24;32.86;97867.34;10048402;29;20049;-76
2021/04/18 13:21:03;;;;;;;10.10;9.00;;;;;;;17.18;32.81;97867.09;10052239;29;20049;-75
2021/04/18 13:26:27;;;;;;;11.05;9.20;;;;;;;17.17;33.25;97868.44;10038617;29;20057;-75
2021/04/18 13:31:47;;;;;;;9.23;8.10;;;;;;;17.20;33.25;97855.88;10034040;29;20054;-76
2021/04/18 13:37:07;;;;;;;11.45;9.18;;;;;;;16.79;33.43;97862.56;10033847;29;20378;-75
2021/04/18 13:42:27;;;;;;;13.20;8.85;;;;;;;16.08;33.96;97862.03;10033860;29;20059;-77
2021/04/18 13:47:46;;;;;;;11.13;8.77;;;;;;;15.37;34.46;97855.72;10033272;29;20050;-76
2021/04/18 13:53:09;;;;;;;10.43;8.40;;;;;;;14.95;34.99;97857.78;10027520;29;20045;-76
2021/04/18 13:58:28;;;;;;;9.85;7.78;;;;;;;14.85;35.58;97857.25;10070892;29;20073;-77
2021/04/18 14:03:52;;;;;;;9.73;8.15;;;;;;;14.95;35.99;97849.38;10069785;29;20052;-77
2021/04/18 14:09:12;;;;;;;11.82;8.02;;;;;;;14.94;35.79;97853.53;10056289;29;20060;-76
2021/04/18 14:14:32;;;;;;;7.65;6.93;;;;;;;14.89;35.84;97849.06;10048361;29;20060;-76
2021/04/18 14:19:56;;;;;;;8.43;6.93;;;;;;;14.65;36.04;97854.13;10056843;29;20045;-76
2021/04/18 14:25:15;;;;;;;7.45;6.70;;;;;;;14.23;36.43;97853.25;10064566;29;20061;-76
2021/04/18 14:30:35;;;;;;;10.80;7.88;;;;;;;13.92;37.16;97856.47;10053844;29;20045;-74
2021/04/18 14:35:56;;;;;;;9.80;7.15;;;;;;;13.69;37.30;97850.91;10047261;29;20481;-76
2021/04/18 14:41:16;;;;;;;11.20;8.77;;;;;;;13.54;37.93;97862.69;10046904;29;20050;-75
2021/04/18 14:46:36;;;;;;;11.60;9.05;;;;;;;13.40;38.12;97857.69;10044447;29;20474;-77
2021/04/18 14:51:55;;;;;;;10.77;9.65;;;;;;;13.45;38.15;97848.19;10048472;29;20057;-77
2021/04/18 14:57:15;;;;;;;12.57;9.70;;;;;;;13.48;38.60;97851.09;10032756;29;20041;-76
2021/04/18 15:02:35;;;;;;;13.07;10.45;;;;;;;13.34;39.17;97848.22;10049669;29;20056;-75
2021/04/18 15:07:55;;;;;;;14.52;10.43;;;;;;;12.92;40.29;97846.41;10070424;29;20052;-75
2021/04/18 15:13:40;;;;;;;14.85;10.77;;;;;;;12.73;40.44;97850.16;10040820;29;20064;-78
2021/04/18 15:19:39;;;;;;;15.23;11.07;;;;;;;12.65;41.52;97842.03;10034065;29;20046;-80
2021/04/18 15:25:18;;;;;;;15.00;10.32;;;;;;;12.56;41.14;97854.78;10038845;29;20050;-79
2021/04/18 15:31:11;;;;;;;15.20;10.98;;;;;;;12.51;41.73;97861.47;10053277;29;20462;-80
2021/04/18 15:36:38;;;;;;;16.55;10.65;;;;;;;12.44;42.19;97848.44;10015641;29;20053;-78
2021/04/18 15:41:58;;;;;;;12.43;9.70;;;;;;;12.33;42.07;97863.88;10020002;29;20485;-79
2021/04/18 15:47:18;;;;;;;14.80;9.70;;;;;;;12.43;42.15;97863.75;10040660;29;20050;-78
2021/04/18 15:52:38;;;;;;;13.02;8.82;;;;;;;12.42;42.44;97859.50;10039923;29;20543;-78
2021/04/18 15:57:57;;;;;;;13.13;8.70;;;;;;;12.36;43.64;97853.53;10038452;29;20069;-78
2021/04/18 16:03:17;;;;;;;11.13;8.00;;;;;;;12.29;43.91;97863.63;10037475;29;20477;-74
2021/04/18 16:08:37;;;;;;;10.40;7.68;;;;;;;12.22;44.65;97863.84;10051165;29;20053;-75
2021/04/18 16:13:57;;;;;;;11.00;8.63;;;;;;;12.16;46.15;97864.22;10073474;29;20404;-75
2021/04/18 16:19:21;;;;;;;10.35;8.73;;;;;;;12.11;46.17;97872.94;10087970;29;20056;-76
2021/04/18 16:24:42;;;;;;;10.00;7.82;;;;;;;12.00;46.48;97872.28;10075735;29;20045;-75
2021/04/18 16:30:05;;;;;;;9.30;7.22;;;;;;;11.93;45.92;97876.03;10074919;29;20071;-71
2021/04/18 16:35:24;;;;;;;10.77;6.70;;;;;;;11.80;46.88;97887.03;10061368;29;20052;-73
2021/04/18 16:40:44;;;;;;;8.38;6.38;;;;;;;11.79;46.81;97879.97;10074025;29;20499;-72
2021/04/18 16:46:04;;;;;;;8.82;7.22;;;;;;;11.72;47.14;97887.94;10074166;29;20052;-73
2021/04/18 16:51:24;;;;;;;8.40;6.20;;;;;;;11.61;47.54;97899.06;10073955;29;20053;-73
2021/04/18 16:56:44;;;;;;;9.90;6.80;;;;;;;11.46;48.21;97895.31;10073823;29;20045;-73
2021/04/18 17:02:03;;;;;;;9.32;6.03;;;;;;;11.45;48.48;97895.94;10074256;29;20100;-74
2021/04/18 17:07:23;;;;;;;9.60;6.38;;;;;;;11.32;49.48;97907.63;10073490;29;20449;-74
2021/04/18 17:12:43;;;;;;;7.75;4.97;;;;;;;11.20;48.82;97918.00;10073220;29;20513;-75
2021/04/18 17:18:04;;;;;;;8.32;5.50;;;;;;;11.05;49.13;97917.03;10060334;29;20056;-79
2021/04/18 17:23:24;;;;;;;7.60;5.20;;;;;;;10.93;49.19;97919.00;10060322;29;20076;-77
2021/04/18 17:28:43;;;;;;;6.70;4.78;;;;;;;10.82;49.37;97936.38;10059861;29;20132;-79
2021/04/18 17:34:03;;;;;;;8.13;4.75;;;;;;;10.72;49.54;97935.69;10072954;29;20549;-79
2021/04/18 17:39:24;;;;;;;7.13;5.60;;;;;;;10.62;50.31;97934.97;10059910;29;20049;-79
2021/04/18 17:44:43;;;;;;;6.88;5.57;;;;;;;10.54;50.22;97941.44;10071647;29;20049;-79
2021/04/18 17:50:04;;;;;;;7.57;5.38;;;;;;;10.44;50.64;97943.50;10072969;29;20057;-74
2021/04/18 17:55:25;;;;;;;10.70;5.85;;;;;;;10.31;51.01;97941.91;10072144;29;20423;-76
2021/04/18 18:00:45;;;;;;;10.77;6.68;;;;;;;10.22;51.57;97941.91;10057799;29;20045;-76
2021/04/18 18:06:05;;;;;;;12.52;7.38;;;;;;;10.11;51.52;97957.16;10071215;29;20049;-78
2021/04/18 18:11:25;;;;;;;10.88;8.05;;;;;;;10.03;52.23;97957.28;10058508;29;20045;-76
2021/04/18 18:16:45;;;;;;;9.77;7.15;;;;;;;9.98;52.10;97961.13;10058239;29;20041;-75
2021/04/18 18:22:06;;;;;;;11.05;7.30;;;;;;;9.94;52.34;97960.06;10071050;29;20052;-74
2021/04/18 18:27:26;;;;;;;11.02;7.72;;;;;;;9.92;52.67;97968.28;10071162;29;20485;-78
2021/04/18 18:32:46;;;;;;;12.55;8.20;;;;;;;9.86;52.85;97974.19;10058112;29;20049;-75
2021/04/18 18:38:05;;;;;;;12.20;7.85;;;;;;;9.82;53.64;97973.88;10057819;29;20500;-76
2021/04/18 18:43:25;;;;;;;11.07;7.68;;;;;;;9.79;53.31;97983.41;10070158;29;20053;-75
2021/04/18 18:48:45;;;;;;;11.95;8.40;;;;;;;9.75;53.70;97977.53;10070171;29;20057;-75
2021/04/18 18:54:05;;;;;;;12.40;7.82;;;;;;;9.76;53.96;97981.78;10047004;29;20049;-76
2021/04/18 18:59:25;;;;;;;12.90;8.30;;;;;;;9.71;54.47;97988.38;10048457;29;20048;-75
2021/04/18 19:04:45;;;;;;;11.23;7.78;;;;;;;9.71;54.48;97988.38;10039717;29;20046;-77
2021/04/18 19:10:30;;;;;;;10.80;7.30;;;;;;;9.68;55.16;97989.56;10055452;29;20055;-79
2021/04/18 19:15:50;;;;;;;11.55;7.43;;;;;;;9.68;54.93;97983.97;10039386;29;20053;-76
2021/04/18 19:21:11;;;;;;;11.32;8.55;;;;;;;9.66;55.21;97994.97;10052286;29;20057;-75
2021/04/18 19:26:31;;;;;;;11.52;8.32;;;;;;;9.63;55.28;97991.28;10038851;29;20045;-74
2021/04/18 19:31:50;;;;;;;12.15;8.88;;;;;;;9.62;55.22;97997.44;10065695;29;20453;-75
2021/04/18 19:37:10;;;;;;;14.30;9.13;;;;;;;9.58;55.57;97994.38;10038489;29;20056;-75
2021/04/18 19:42:30;;;;;;;14.45;10.85;;;;;;;9.55;56.15;98003.88;10038293;29;20111;-74
2021/04/18 19:47:50;;;;;;;13.18;8.82;;;;;;;9.58;55.95;98009.03;10051365;29;20488;-76
2021/04/18 19:53:10;;;;;;;15.00;10.30;;;;;;;9.65;56.38;98007.41;10037370;29;20056;-75
2021/04/18 19:58:30;;;;;;;14.85;9.93;;;;;;;9.68;56.38;98007.00;10049874;29;20054;-75
2021/04/18 20:03:49;;;;;;;14.88;9.80;;;;;;;9.70;56.84;98003.63;10037795;29;20048;-75
2021/04/18 20:09:09;;;;;;;13.75;10.20;;;;;;;9.74;56.56;98009.50;10049832;29;20126;-75
2021/04/18 20:14:29;;;;;;;15.77;10.02;;;;;;;9.72;56.72;98004.50;10050560;29;20406;-74
2021/04/18 20:19:49;;;;;;;14.75;10.88;;;;;;;9.71;57.17;97994.69;10050275;29;20046;-74
2021/04/18 20:25:12;;;;;;;14.85;11.00;;;;;;;9.72;56.93;98012.88;10049727;29;20052;-74
2021/04/18 20:30:32;;;;;;;13.60;11.07;;;;;;;9.73;57.58;98005.25;10025074;29;20083;-75
2021/04/18 20:35:52;;;;;;;17.13;12.63;;;;;;;9.70;57.49;98004.38;10049300;29;20056;-75
2021/04/18 20:41:13;;;;;;;14.18;11.15;;;;;;;9.71;57.76;98003.03;10036885;29;20046;-74
2021/04/18 20:46:32;;;;;;;14.05;11.13;;;;;;;9.67;58.04;97999.97;10023987;29;20068;-74
2021/04/18 20:51:52;;;;;;;18.65;12.77;;;;;;;9.59;57.79;97988.22;10023314;29;20459;-75
2021/04/18 20:57:12;;;;;;;18.85;12.65;;;;;;;9.38;58.27;97991.53;10048769;29;20121;-75
2021/04/18 21:02:31;;;;;;;18.13;12.50;;;;;;;9.20;58.49;98003.31;10048324;29;20061;-74
2021/04/18 21:07:51;;;;;;;16.45;12.25;;;;;;;9.05;58.99;97993.13;10035932;29;20045;-75
2021/04/18 21:13:11;;;;;;;18.08;12.13;;;;;;;8.96;59.15;98000.13;10035146;29;20041;-75
2021/04/18 21:18:31;;;;;;;18.00;12.35;;;;;;;8.88;59.14;98007.88;10022300;29;20052;-74
2021/04/18 21:23:50;;;;;;;16.83;11.98;;;;;;;8.91;59.59;98011.53;10047639;29;20102;-74
2021/04/18 21:29:10;;;;;;;17.30;12.23;;;;;;;8.94;59.38;97999.22;10035053;29;20064;-75
2021/04/18 21:34:30;;;;;;;15.05;10.73;;;;;;;8.98;59.55;97999.56;10034663;29;20050;-74
2021/04/18 21:39:50;;;;;;;17.08;10.00;;;;;;;8.94;59.22;97991.63;10047211;29;20485;-74
2021/04/18 21:45:10;;;;;;;14.38;10.25;;;;;;;8.87;59.21;97992.44;10047559;29;20078;-74
2021/04/18 21:50:30;;;;;;;15.35;10.77;;;;;;;8.87;59.57;97995.97;10046908;29;20068;-75
2021/04/18 21:55:49;;;;;;;16.70;11.68;;;;;;;8.83;59.90;97990.09;10033763;29;20401;-75
2021/04/18 22:01:09;;;;;;;16.83;11.70;;;;;;;8.84;60.27;97990.81;10033348;29;20454;-75
2021/04/18 22:06:29;;;;;;;20.10;12.65;;;;;;;8.84;60.11;97999.91;10033779;29;20049;-74
2021/04/18 22:11:49;;;;;;;17.60;13.18;;;;;;;8.87;60.40;97987.63;10046224;29;20427;-74
2021/04/18 22:17:08;;;;;;;17.45;12.77;;;;;;;8.87;60.46;97995.22;10033136;29;20482;-74
2021/04/18 22:22:28;;;;;;;29.75;19.00;;;;;;;8.85;60.66;97998.59;10045726;29;20126;-74
2021/04/18 22:27:48;;;;;;;20.02;13.80;;;;;;;8.82;60.52;97993.47;10032785;29;20050;-74
2021/04/18 22:33:08;;;;;;;23.08;14.45;;;;;;;8.79;60.57;97995.34;10045692;29;20053;-74
2021/04/18 22:38:28;;;;;;;21.35;15.18;;;;;;;8.81;60.96;97989.94;10045864;29;20052;-74
2021/04/18 22:43:48;;;;;;;20.10;14.57;;;;;;;8.77;61.13;97992.41;10045724;29;20052;-74
2021/04/18 22:49:08;;;;;;;21.65;14.18;;;;;;;8.76;61.01;97993.72;10032547;29;20061;-75
2021/04/18 22:54:28;;;;;;;20.08;14.68;;;;;;;8.79;61.38;97989.78;10032785;29;20053;-74
2021/04/18 22:59:47;;;;;;;22.00;15.35;;;;;;;8.77;61.73;97986.09;10032199;29;20042;-74
2021/04/18 23:05:08;;;;;;;21.25;15.32;;;;;;;8.80;61.63;97988.47;10032002;29;20049;-74
2021/04/18 23:10:28;;;;;;;20.60;14.85;;;;;;;8.80;61.56;97980.13;10007483;29;20056;-74
2021/04/18 23:15:48;;;;;;;19.08;14.43;;;;;;;8.80;61.61;97985.69;10044618;29;20097;-74
2021/04/18 23:21:08;;;;;;;21.05;15.63;;;;;;;8.75;62.04;97983.88;10045043;29;20054;-75
2021/04/18 23:26:27;;;;;;;22.17;14.73;;;;;;;8.74;61.97;97976.84;10044554;29;20050;-74
2021/04/18 23:31:47;;;;;;;20.08;14.40;;;;;;;8.72;62.47;97973.19;10045033;29;20049;-75
2021/04/18 23:37:07;;;;;;;21.27;15.68;;;;;;;8.66;62.66;97970.66;10031406;29;20045;-75
2021/04/18 23:42:27;;;;;;;19.83;14.43;;;;;;;8.65;62.36;97966.41;10033991;29;20053;-74
2021/04/18 23:47:46;;;;;;;23.45;14.35;;;;;;;8.65;62.64;97957.31;10051091;29;20046;-75
2021/04/18 23:53:06;;;;;;;20.63;15.23;;;;;;;8.62;63.08;97956.44;10051961;29;20128;-74
2021/04/18 23:58:26;;;;;;;21.92;15.05;;;;;;;8.57;62.99;97957.41;10065127;29;20045;-75
